createdAt,value
2019-03-17T14:35:28.341Z,10.25
2019-03-17T14:36:27.232Z,10.28
2019-03-17T14:37:27.226Z,10.19
2019-03-17T14:38:27.234Z,10.13
2019-03-17T14:39:27.207Z,9.94
2019-03-17T14:40:27.195Z,9.84
2019-03-17T14:41:27.185Z,9.77
2019-03-17T14:42:27.182Z,9.76
2019-03-17T14:43:27.191Z,9.77
2019-03-17T14:44:27.159Z,9.72
2019-03-17T14:45:27.151Z,9.68
2019-03-17T14:46:27.161Z,9.72
2019-03-17T14:47:27.136Z,9.58
2019-03-17T14:48:27.134Z,9.59
2019-03-17T14:49:27.112Z,9.51
2019-03-17T14:50:27.100Z,9.50
2019-03-17T14:51:27.105Z,9.47
2019-03-17T14:52:27.080Z,9.64
2019-03-17T14:53:27.073Z,9.66
2019-03-17T14:54:27.060Z,9.76
2019-03-17T14:55:27.660Z,9.79
2019-03-17T14:56:27.053Z,9.84
2019-03-17T14:57:27.028Z,9.94
2019-03-17T14:58:27.032Z,9.95
2019-03-17T14:59:27.008Z,9.97
2019-03-17T15:00:27.004Z,9.97
2019-03-17T15:01:27.088Z,10.04
2019-03-17T15:02:26.989Z,9.94
2019-03-17T15:03:26.982Z,10.01
2019-03-17T15:04:26.964Z,9.92
2019-03-17T15:05:26.960Z,10.02
2019-03-17T15:06:26.949Z,9.94
2019-03-17T15:07:26.947Z,9.89
2019-03-17T15:08:26.932Z,9.89
2019-03-17T15:09:26.918Z,9.82
2019-03-17T15:10:26.926Z,9.74
2019-03-17T15:11:27.574Z,9.72
2019-03-17T15:12:26.898Z,9.61
2019-03-17T15:13:26.884Z,9.59
2019-03-17T15:14:26.873Z,9.46
2019-03-17T15:15:26.863Z,9.44
2019-03-17T15:16:26.850Z,9.44
2019-03-17T15:17:26.846Z,9.46
2019-03-17T15:18:26.912Z,9.51
2019-03-17T15:19:26.828Z,9.40
2019-03-17T15:20:26.831Z,9.40
2019-03-17T15:21:26.808Z,9.46
2019-03-17T15:22:26.796Z,9.43
2019-03-17T15:23:26.790Z,9.47
2019-03-17T15:24:27.673Z,9.50
2019-03-17T15:25:26.769Z,9.50
2019-03-17T15:26:26.755Z,9.51
2019-03-17T15:27:26.742Z,9.50
2019-03-17T15:28:26.739Z,9.47
2019-03-17T15:29:26.732Z,9.55
2019-03-17T15:30:26.720Z,9.59
2019-03-17T15:31:26.713Z,9.61
2019-03-17T15:32:26.705Z,9.66
2019-03-17T15:33:26.688Z,9.72
2019-03-17T15:34:26.683Z,9.74
2019-03-17T15:35:26.687Z,9.84
2019-03-17T15:36:26.664Z,9.79
2019-03-17T15:37:26.652Z,9.73
2019-03-17T15:38:26.642Z,9.76
2019-03-17T15:39:26.633Z,9.66
2019-03-17T15:40:26.629Z,9.66
2019-03-17T15:41:26.610Z,9.64
2019-03-17T15:42:26.605Z,9.56
2019-03-17T15:43:28.238Z,9.69
2019-03-17T15:44:26.583Z,9.66
2019-03-17T15:45:26.572Z,9.69
2019-03-17T15:46:26.575Z,9.68
2019-03-17T15:47:26.557Z,9.74
2019-03-17T15:48:26.551Z,9.77
2019-03-17T15:49:26.540Z,9.86
2019-03-17T15:50:26.534Z,9.84
2019-03-17T15:51:26.528Z,9.80
2019-03-17T15:52:26.513Z,9.86
2019-03-17T15:53:26.505Z,9.83
2019-03-17T15:54:26.496Z,9.69
2019-03-17T15:55:26.479Z,9.80
2019-03-17T15:56:26.468Z,9.73
2019-03-17T15:57:26.491Z,9.66
2019-03-17T15:58:26.455Z,9.62
2019-03-17T15:59:26.441Z,9.48
2019-03-17T16:00:27.118Z,9.39
2019-03-17T16:01:26.432Z,9.21
2019-03-17T16:02:26.415Z,9.03
2019-03-17T16:03:26.404Z,8.63
2019-03-17T16:04:26.394Z,8.38
2019-03-17T16:05:26.443Z,8.27
2019-03-17T16:06:26.376Z,8.16
2019-03-17T16:07:26.388Z,8.13
2019-03-17T16:08:26.359Z,8.05
2019-03-17T16:09:28.642Z,8.06
2019-03-17T16:10:26.333Z,7.95
2019-03-17T16:11:30.805Z,7.97
2019-03-17T16:12:26.338Z,7.95
2019-03-17T16:13:26.303Z,7.76
2019-03-17T16:14:26.414Z,7.87
2019-03-17T16:15:26.290Z,7.87
2019-03-17T16:16:26.292Z,7.83
2019-03-17T16:17:26.265Z,7.90
2019-03-17T16:18:26.262Z,7.80
2019-03-17T16:19:26.243Z,7.83
2019-03-17T16:20:26.280Z,7.87
2019-03-17T16:21:26.226Z,7.75
2019-03-17T16:22:26.214Z,7.83
2019-03-17T16:23:26.201Z,7.83
2019-03-17T16:24:26.192Z,7.76
2019-03-17T16:25:26.184Z,7.83
2019-03-17T16:26:26.174Z,7.91
2019-03-17T16:27:26.241Z,7.82
2019-03-17T16:28:26.153Z,7.80
2019-03-17T16:29:26.131Z,7.82
2019-03-17T16:30:26.121Z,7.87
2019-03-17T16:31:26.113Z,7.80
2019-03-17T16:32:26.105Z,7.75
2019-03-17T16:33:26.104Z,7.80
2019-03-17T16:34:26.086Z,7.77
2019-03-17T16:35:26.073Z,7.77
2019-03-17T16:36:26.057Z,7.69
2019-03-17T16:37:26.067Z,7.73
2019-03-17T16:38:26.048Z,7.67
2019-03-17T16:39:26.055Z,7.63
2019-03-17T16:40:26.023Z,7.73
2019-03-17T16:41:26.006Z,7.67
2019-03-17T16:42:26.028Z,7.73
2019-03-17T16:43:25.985Z,7.75
2019-03-17T16:44:26.213Z,7.72
2019-03-17T16:45:25.970Z,7.75
2019-03-17T16:46:25.961Z,7.72
2019-03-17T16:47:25.939Z,7.73
2019-03-17T16:48:25.953Z,7.72
2019-03-17T16:49:25.928Z,7.73
2019-03-17T16:50:25.925Z,7.73
2019-03-17T16:51:25.909Z,7.73
2019-03-17T16:52:25.901Z,7.75
2019-03-17T16:53:25.875Z,7.77
2019-03-17T16:54:25.876Z,7.72
2019-03-17T16:55:25.857Z,7.75
2019-03-17T16:56:25.842Z,7.72
2019-03-17T16:57:25.830Z,7.73
2019-03-17T16:58:25.820Z,7.63
2019-03-17T16:59:25.823Z,7.61
2019-03-17T17:00:25.818Z,7.60
2019-03-17T17:01:25.789Z,7.61
2019-03-17T17:02:25.774Z,7.63
2019-03-17T17:03:25.768Z,7.63
2019-03-17T17:04:25.760Z,7.60
2019-03-17T17:05:26.181Z,7.58
2019-03-17T17:06:25.733Z,7.67
2019-03-17T17:07:25.741Z,7.57
2019-03-17T17:08:25.725Z,7.63
2019-03-17T17:09:25.709Z,7.67
2019-03-17T17:10:25.701Z,7.69
2019-03-17T17:11:25.696Z,7.63
2019-03-17T17:12:25.671Z,7.54
2019-03-17T17:13:25.664Z,7.63
2019-03-17T17:14:25.647Z,7.53
2019-03-17T17:15:25.641Z,7.57
2019-03-17T17:16:25.633Z,7.58
2019-03-17T17:17:25.623Z,7.54
2019-03-17T17:18:25.607Z,7.66
2019-03-17T17:19:25.637Z,7.57
2019-03-17T17:20:25.593Z,7.58
2019-03-17T17:21:25.576Z,7.56
2019-03-17T17:22:25.574Z,7.54
2019-03-17T17:23:25.566Z,7.58
2019-03-17T17:24:25.599Z,7.54
2019-03-17T17:25:25.528Z,7.45
2019-03-17T17:26:36.643Z,7.43
2019-03-17T17:27:25.510Z,7.39
2019-03-17T17:28:25.515Z,7.40
2019-03-17T17:29:25.486Z,7.40
2019-03-17T17:30:25.471Z,7.42
2019-03-17T17:31:25.459Z,7.38
2019-03-17T17:32:25.458Z,7.33
2019-03-17T17:33:27.847Z,7.36
2019-03-17T17:34:25.481Z,7.28
2019-03-17T17:35:25.417Z,7.21
2019-03-17T17:36:25.409Z,7.23
2019-03-17T17:37:25.404Z,7.17
2019-03-17T17:38:25.388Z,7.21
2019-03-17T17:39:26.220Z,7.23
2019-03-17T17:40:25.368Z,7.18
2019-03-17T17:41:25.354Z,7.24
2019-03-17T17:42:25.373Z,7.21
2019-03-17T17:43:25.334Z,7.21
2019-03-17T17:44:25.322Z,7.23
2019-03-17T17:45:25.306Z,7.21
2019-03-17T17:46:25.300Z,7.18
2019-03-17T17:47:25.285Z,7.18
2019-03-17T17:48:25.286Z,7.20
2019-03-17T17:49:25.268Z,7.14
2019-03-17T17:50:25.257Z,7.15
2019-03-17T17:51:25.243Z,7.11
2019-03-17T17:52:27.971Z,7.10
2019-03-17T17:53:25.229Z,7.06
2019-03-17T17:54:25.225Z,7.02
2019-03-17T17:55:25.201Z,7.05
2019-03-17T17:56:25.188Z,7.03
2019-03-17T17:57:25.187Z,7.02
2019-03-17T17:58:25.175Z,7.07
2019-03-17T17:59:25.175Z,6.97
2019-03-17T18:00:25.145Z,6.97
2019-03-17T18:01:25.133Z,7.00
2019-03-17T18:02:25.135Z,6.95
2019-03-17T18:03:25.108Z,6.93
2019-03-17T18:04:25.101Z,6.87
2019-03-17T18:05:25.088Z,6.93
2019-03-17T18:06:25.088Z,6.93
2019-03-17T18:07:25.067Z,6.89
2019-03-17T18:08:25.059Z,6.92
2019-03-17T18:09:25.044Z,6.77
2019-03-17T18:10:25.035Z,6.81
2019-03-17T18:11:25.031Z,6.88
2019-03-17T18:12:25.016Z,6.81
2019-03-17T18:13:24.997Z,6.77
2019-03-17T18:14:24.995Z,6.79
2019-03-17T18:15:24.982Z,6.74
2019-03-17T18:16:24.966Z,6.66
2019-03-17T18:17:24.963Z,6.70
2019-03-17T18:18:24.947Z,6.72
2019-03-17T18:19:24.933Z,6.67
2019-03-17T18:20:24.926Z,6.62
2019-03-17T18:21:24.916Z,6.49
2019-03-17T18:22:24.902Z,6.64
2019-03-17T18:23:24.906Z,6.60
2019-03-17T18:24:24.879Z,6.64
2019-03-17T18:25:24.881Z,6.62
2019-03-17T18:26:24.880Z,6.62
2019-03-17T18:27:24.861Z,6.57
2019-03-17T18:28:24.886Z,6.64
2019-03-17T18:29:24.842Z,6.67
2019-03-17T18:30:25.728Z,6.44
2019-03-17T18:31:24.855Z,6.45
2019-03-17T18:32:24.841Z,6.42
2019-03-17T18:33:24.779Z,6.36
2019-03-17T18:34:24.815Z,6.51
2019-03-17T18:35:25.767Z,6.41
2019-03-17T18:36:25.743Z,6.52
2019-03-17T18:37:24.799Z,6.46
2019-03-17T18:38:24.743Z,6.45
2019-03-17T18:39:24.713Z,6.46
2019-03-17T18:40:24.698Z,6.45
2019-03-17T18:41:25.237Z,6.39
2019-03-17T18:42:33.053Z,6.41
2019-03-17T18:43:24.720Z,6.44
2019-03-17T18:44:24.658Z,6.45
2019-03-17T18:45:24.644Z,6.33
2019-03-17T18:46:24.734Z,6.38
2019-03-17T18:47:24.619Z,6.35
2019-03-17T18:48:24.614Z,6.35
2019-03-17T18:49:24.601Z,6.39
2019-03-17T18:50:24.596Z,6.31
2019-03-17T18:51:25.282Z,6.26
2019-03-17T18:52:24.563Z,6.19
2019-03-17T18:53:24.554Z,6.20
2019-03-17T18:54:24.551Z,6.24
2019-03-17T18:55:24.532Z,6.20
2019-03-17T18:56:24.524Z,6.11
2019-03-17T18:57:25.242Z,6.19
2019-03-17T18:58:24.518Z,6.14
2019-03-17T18:59:24.490Z,6.20
2019-03-17T19:00:24.484Z,6.07
2019-03-17T19:01:24.481Z,6.08
2019-03-17T19:02:35.386Z,6.11
2019-03-17T19:03:24.447Z,6.09
2019-03-17T19:04:24.437Z,6.07
2019-03-17T19:05:24.424Z,6.01
2019-03-17T19:06:24.412Z,6.04
2019-03-17T19:07:24.394Z,6.08
2019-03-17T19:08:24.405Z,6.07
2019-03-17T19:09:24.375Z,5.98
2019-03-17T19:10:24.361Z,6.02
2019-03-17T19:11:24.345Z,5.91
2019-03-17T19:12:24.344Z,5.98
2019-03-17T19:13:24.327Z,5.98
2019-03-17T19:14:24.323Z,5.90
2019-03-17T19:15:24.306Z,5.93
2019-03-17T19:16:24.295Z,5.97
2019-03-17T19:17:24.289Z,5.93
2019-03-17T19:18:24.269Z,5.91
2019-03-17T19:19:24.254Z,5.90
2019-03-17T19:20:24.254Z,5.89
2019-03-17T19:21:24.236Z,5.91
2019-03-17T19:22:24.220Z,5.89
2019-03-17T19:23:24.221Z,5.86
2019-03-17T19:24:24.197Z,5.82
2019-03-17T19:25:24.186Z,5.93
2019-03-17T19:26:24.173Z,5.86
2019-03-17T19:27:24.166Z,5.75
2019-03-17T19:28:24.153Z,5.84
2019-03-17T19:29:24.146Z,5.83
2019-03-17T19:30:24.139Z,5.82
2019-03-17T19:31:24.118Z,5.76
2019-03-17T19:32:24.112Z,5.72
2019-03-17T19:33:24.102Z,5.80
2019-03-17T19:34:24.124Z,5.76
2019-03-17T19:35:24.083Z,5.66
2019-03-17T19:36:24.058Z,5.66
2019-03-17T19:37:24.048Z,5.66
2019-03-17T19:38:24.031Z,5.71
2019-03-17T19:39:24.024Z,5.72
2019-03-17T19:40:24.030Z,5.73
2019-03-17T19:41:24.003Z,5.76
2019-03-17T19:42:23.983Z,5.72
2019-03-17T19:43:23.970Z,5.73
2019-03-17T19:44:23.967Z,5.69
2019-03-17T19:45:23.965Z,5.71
2019-03-17T19:46:23.944Z,5.66
2019-03-17T19:47:23.928Z,5.71
2019-03-17T19:48:24.777Z,5.66
2019-03-17T19:49:23.918Z,5.69
2019-03-17T19:50:23.900Z,5.62
2019-03-17T19:51:23.893Z,5.71
2019-03-17T19:52:24.807Z,5.69
2019-03-17T19:53:23.859Z,5.69
2019-03-17T19:54:23.857Z,5.61
2019-03-17T19:55:23.840Z,5.62
2019-03-17T19:56:23.826Z,5.56
2019-03-17T19:57:23.815Z,5.48
2019-03-17T19:58:23.803Z,5.54
2019-03-17T19:59:23.797Z,5.57
2019-03-17T20:00:26.756Z,5.51
2019-03-17T20:01:23.782Z,5.51
2019-03-17T20:02:23.755Z,5.48
2019-03-17T20:03:23.744Z,5.56
2019-03-17T20:04:30.433Z,5.53
2019-03-17T20:05:23.724Z,5.54
2019-03-17T20:06:23.713Z,5.54
2019-03-17T20:07:23.702Z,5.47
2019-03-17T20:08:23.709Z,5.50
2019-03-17T20:09:23.676Z,5.51
2019-03-17T20:10:23.663Z,5.47
2019-03-17T20:11:25.687Z,5.44
2019-03-17T20:12:23.653Z,5.41
2019-03-17T20:13:23.655Z,5.30
2019-03-17T20:14:23.636Z,5.32
2019-03-17T20:15:23.605Z,5.36
2019-03-17T20:16:23.591Z,5.35
2019-03-17T20:17:23.587Z,5.38
2019-03-17T20:18:23.572Z,5.38
2019-03-17T20:19:23.577Z,5.29
2019-03-17T20:20:23.543Z,5.25
2019-03-17T20:21:23.529Z,5.23
2019-03-17T20:22:23.536Z,5.35
2019-03-17T20:23:24.273Z,5.25
2019-03-17T20:24:23.518Z,5.25
2019-03-17T20:25:23.488Z,5.26
2019-03-17T20:26:23.469Z,5.26
2019-03-17T20:27:23.478Z,5.28
2019-03-17T20:28:23.458Z,5.25
2019-03-17T20:29:23.433Z,5.21
2019-03-17T20:30:23.443Z,5.28
2019-03-17T20:31:23.426Z,5.21
2019-03-17T20:32:23.402Z,5.18
2019-03-17T20:33:23.391Z,5.23
2019-03-17T20:34:23.392Z,5.11
2019-03-17T20:35:23.420Z,5.20
2019-03-17T20:36:23.362Z,5.17
2019-03-17T20:37:23.347Z,5.14
2019-03-17T20:38:23.333Z,5.11
2019-03-17T20:39:23.324Z,5.14
2019-03-17T20:40:23.310Z,5.14
2019-03-17T20:41:23.290Z,5.11
2019-03-17T20:42:23.282Z,5.14
2019-03-17T20:43:34.289Z,5.17
2019-03-17T20:44:23.257Z,5.07
2019-03-17T20:45:23.251Z,5.14
2019-03-17T20:46:23.405Z,5.10
2019-03-17T20:47:23.226Z,5.11
2019-03-17T20:48:23.343Z,5.10
2019-03-17T20:49:23.861Z,5.08
2019-03-17T20:50:23.202Z,5.04
2019-03-17T20:51:23.181Z,5.02
2019-03-17T20:52:23.174Z,5.00
2019-03-17T20:53:23.146Z,5.00
2019-03-17T20:54:23.151Z,5.10
2019-03-17T20:55:23.140Z,4.94
2019-03-17T20:56:23.122Z,5.04
2019-03-17T20:57:23.106Z,4.93
2019-03-17T20:58:23.095Z,5.04
2019-03-17T20:59:23.084Z,5.00
2019-03-17T21:00:23.067Z,4.96
2019-03-17T21:01:23.065Z,4.97
2019-03-17T21:02:23.051Z,4.93
2019-03-17T21:03:23.041Z,4.96
2019-03-17T21:04:23.036Z,4.97
2019-03-17T21:05:23.012Z,4.94
2019-03-17T21:06:23.002Z,4.97
2019-03-17T21:07:22.985Z,5.02
2019-03-17T21:08:22.979Z,5.02
2019-03-17T21:09:22.958Z,5.04
2019-03-17T21:10:22.982Z,5.02
2019-03-17T21:11:22.945Z,5.04
2019-03-17T21:12:22.925Z,4.99
2019-03-17T21:13:22.914Z,4.92
2019-03-17T21:14:22.901Z,4.93
2019-03-17T21:15:22.894Z,4.99
2019-03-17T21:16:22.879Z,4.93
2019-03-17T21:17:22.863Z,4.90
2019-03-17T21:18:22.859Z,4.87
2019-03-17T21:19:22.842Z,4.82
2019-03-17T21:20:22.839Z,4.92
2019-03-17T21:21:22.822Z,4.84
2019-03-17T21:22:22.808Z,4.80
2019-03-17T21:23:22.787Z,4.86
2019-03-17T21:24:22.781Z,4.75
2019-03-17T21:25:22.764Z,4.73
2019-03-17T21:26:22.757Z,4.77
2019-03-17T21:27:22.745Z,4.78
2019-03-17T21:28:22.737Z,4.82
2019-03-17T21:29:22.729Z,4.84
2019-03-17T21:30:22.782Z,4.75
2019-03-17T21:31:22.692Z,4.86
2019-03-17T21:32:22.682Z,4.80
2019-03-17T21:33:22.669Z,4.80
2019-03-17T21:34:22.659Z,4.80
2019-03-17T21:35:22.645Z,4.77
2019-03-17T21:36:22.640Z,4.80
2019-03-17T21:37:22.618Z,4.77
2019-03-17T21:38:22.619Z,4.78
2019-03-17T21:39:22.613Z,4.77
2019-03-17T21:40:22.592Z,4.80
2019-03-17T21:41:22.572Z,4.73
2019-03-17T21:42:22.558Z,4.74
2019-03-17T21:43:22.553Z,4.74
2019-03-17T21:44:22.537Z,4.67
2019-03-17T21:45:22.529Z,4.63
2019-03-17T21:46:22.520Z,4.68
2019-03-17T21:47:22.503Z,4.62
2019-03-17T21:48:22.490Z,4.68
2019-03-17T21:49:22.481Z,4.56
2019-03-17T21:50:22.461Z,4.58
2019-03-17T21:51:22.461Z,4.63
2019-03-17T21:52:22.439Z,4.55
2019-03-17T21:53:22.426Z,4.53
2019-03-17T21:54:22.414Z,4.53
2019-03-17T21:55:22.401Z,4.55
2019-03-17T21:56:22.408Z,4.50
2019-03-17T21:57:22.395Z,4.49
2019-03-17T21:58:22.369Z,4.55
2019-03-17T21:59:22.348Z,4.55
2019-03-17T22:00:22.345Z,4.50
2019-03-17T22:01:22.327Z,4.49
2019-03-17T22:02:22.316Z,4.45
2019-03-17T22:03:22.307Z,4.37
2019-03-17T22:04:22.293Z,4.40
2019-03-17T22:05:22.279Z,4.49
2019-03-17T22:06:22.261Z,4.44
2019-03-17T22:07:22.261Z,4.40
2019-03-17T22:08:22.245Z,4.38
2019-03-17T22:09:22.240Z,4.44
2019-03-17T22:10:22.222Z,4.48
2019-03-17T22:11:22.208Z,4.44
2019-03-17T22:12:22.191Z,4.49
2019-03-17T22:13:22.189Z,4.41
2019-03-17T22:14:22.170Z,4.41
2019-03-17T22:15:22.162Z,4.42
2019-03-17T22:16:22.150Z,4.42
2019-03-17T22:17:22.136Z,4.35
2019-03-17T22:18:22.129Z,4.37
2019-03-17T22:19:22.111Z,4.49
2019-03-17T22:20:22.096Z,4.45
2019-03-17T22:21:22.083Z,4.34
2019-03-17T22:22:22.069Z,4.48
2019-03-17T22:23:22.066Z,4.48
2019-03-17T22:24:22.042Z,4.50
2019-03-17T22:25:22.053Z,4.53
2019-03-17T22:26:22.023Z,4.48
2019-03-17T22:27:22.011Z,4.37
2019-03-17T22:28:21.998Z,4.37
2019-03-17T22:29:22.000Z,4.40
2019-03-17T22:30:21.976Z,4.41
2019-03-17T22:31:21.956Z,4.30
2019-03-17T22:32:21.945Z,4.28
2019-03-17T22:33:21.936Z,4.34
2019-03-17T22:34:21.932Z,4.31
2019-03-17T22:35:21.911Z,4.34
2019-03-17T22:36:21.899Z,4.28
2019-03-17T22:37:21.896Z,4.31
2019-03-17T22:38:21.872Z,4.32
2019-03-17T22:39:21.872Z,4.35
2019-03-17T22:40:21.849Z,4.23
2019-03-17T22:41:21.835Z,4.23
2019-03-17T22:42:21.828Z,4.23
2019-03-17T22:43:21.819Z,4.23
2019-03-17T22:44:24.599Z,4.23
2019-03-17T22:45:21.804Z,4.16
2019-03-17T22:46:21.776Z,4.19
2019-03-17T22:47:21.764Z,4.20
2019-03-17T22:48:21.754Z,4.20
2019-03-17T22:49:21.745Z,4.20
2019-03-17T22:50:21.748Z,4.12
2019-03-17T22:51:21.710Z,4.16
2019-03-17T22:52:21.702Z,4.08
2019-03-17T22:53:21.689Z,4.13
2019-03-17T22:54:21.684Z,4.13
2019-03-17T22:55:21.661Z,4.12
2019-03-17T22:56:21.665Z,4.16
2019-03-17T22:57:21.636Z,4.16
2019-03-17T22:58:21.624Z,4.17
2019-03-17T22:59:21.613Z,4.08
2019-03-17T23:00:21.597Z,4.12
2019-03-17T23:01:21.600Z,4.04
2019-03-17T23:02:21.579Z,4.12
2019-03-17T23:03:21.573Z,4.10
2019-03-17T23:04:22.210Z,4.06
2019-03-17T23:05:21.634Z,4.14
2019-03-17T23:06:21.533Z,4.12
2019-03-17T23:07:21.512Z,4.12
2019-03-17T23:08:21.501Z,4.12
2019-03-17T23:09:21.487Z,4.12
2019-03-17T23:10:21.491Z,4.14
2019-03-17T23:11:21.481Z,4.13
2019-03-17T23:12:21.462Z,4.05
2019-03-17T23:13:21.442Z,4.14
2019-03-17T23:14:21.422Z,4.04
2019-03-17T23:15:21.422Z,4.14
2019-03-17T23:16:24.684Z,4.17
2019-03-17T23:17:21.391Z,4.12
2019-03-17T23:18:21.376Z,3.99
2019-03-17T23:19:21.371Z,4.17
2019-03-17T23:20:21.378Z,4.14
2019-03-17T23:21:21.345Z,4.20
2019-03-17T23:22:21.334Z,4.08
2019-03-17T23:23:21.312Z,4.10
2019-03-17T23:24:21.307Z,4.06
2019-03-17T23:25:21.294Z,4.02
2019-03-17T23:26:21.280Z,4.04
2019-03-17T23:27:21.279Z,4.08
2019-03-17T23:28:21.268Z,4.04
2019-03-17T23:29:21.245Z,4.10
2019-03-17T23:30:21.227Z,4.06
2019-03-17T23:31:21.803Z,4.04
2019-03-17T23:32:21.809Z,4.04
2019-03-17T23:33:21.193Z,4.01
2019-03-17T23:34:21.175Z,4.02
2019-03-17T23:35:21.163Z,4.01
2019-03-17T23:36:21.164Z,3.99
2019-03-17T23:37:21.140Z,3.91
2019-03-17T23:38:21.130Z,3.95
2019-03-17T23:39:21.121Z,3.94
2019-03-17T23:40:21.107Z,3.94
2019-03-17T23:41:21.106Z,3.87
2019-03-17T23:42:21.082Z,3.91
2019-03-17T23:43:21.067Z,3.91
2019-03-17T23:44:21.050Z,3.88
2019-03-17T23:45:21.050Z,3.95
2019-03-17T23:46:21.031Z,3.86
2019-03-17T23:47:21.016Z,3.88
2019-03-17T23:48:21.006Z,3.86
2019-03-17T23:49:20.998Z,3.91
2019-03-17T23:50:20.980Z,3.94
2019-03-17T23:51:20.978Z,3.92
2019-03-17T23:52:20.948Z,3.96
2019-03-17T23:53:20.942Z,3.88
2019-03-17T23:54:20.931Z,3.86
2019-03-17T23:55:20.911Z,3.87
2019-03-17T23:56:20.908Z,3.83
2019-03-17T23:57:21.899Z,3.86
2019-03-17T23:58:20.878Z,3.86
2019-03-17T23:59:20.878Z,3.87
